JBU1142 KPBI-KBDL
Flight info
| Callsign | JBU1142 |
|---|---|
| Flight time | 2h 35m |
| Altitude | 35000 |
| Route | TBIRD7 VIYAP Q87 JROSS ELLDE Q97 PAACK JAMIE Q481 DPK DPK3 |
| Aircraft | A320/M-SDE3FGHIRWY/LB1 |
Departure
| Time | 2026-05-04 22:36 |
|---|---|
| Airport | Palm Beach International Airport (KPBI) |
Arrival
| Time | 2026-05-05 01:12 |
|---|---|
| Airport | Bradley International Airport (KBDL) |
| Time | Latitude | Longitude | Altitude | Speed | Heading |
|---|---|---|---|---|---|
| 2026-05-04 22:36 | 26.71209 | -79.98835 | 3255 ft | 251 kts | 54° |
| 2026-05-04 22:36 | 26.72557 | -79.97561 | 3961 ft | 259 kts | 24° |
| 2026-05-04 22:37 | 26.74331 | -79.97085 | 4703 ft | 267 kts | 9° |
| 2026-05-04 22:37 | 26.76192 | -79.96831 | 5459 ft | 272 kts | 357° |
| 2026-05-04 22:37 | 26.78001 | -79.97299 | 6194 ft | 273 kts | 331° |
| 2026-05-04 22:37 | 26.79475 | -79.98603 | 6935 ft | 272 kts | 305° |
| 2026-05-04 22:38 | 26.80330 | -80.00472 | 7706 ft | 271 kts | 287° |
| 2026-05-04 22:38 | 26.80936 | -80.02479 | 8505 ft | 274 kts | 287° |
| 2026-05-04 22:38 | 26.81551 | -80.04495 | 9323 ft | 274 kts | 287° |
| 2026-05-04 22:38 | 26.82175 | -80.06516 | 10127 ft | 275 kts | 287° |
| 2026-05-04 22:39 | 26.82819 | -80.08601 | 10428 ft | 294 kts | 287° |
| 2026-05-04 22:39 | 26.83513 | -80.10852 | 10573 ft | 317 kts | 287° |
| 2026-05-04 22:39 | 26.84255 | -80.13258 | 10730 ft | 337 kts | 287° |
| 2026-05-04 22:39 | 26.85024 | -80.15743 | 11206 ft | 344 kts | 287° |
| 2026-05-04 22:40 | 26.85812 | -80.18290 | 11826 ft | 347 kts | 287° |
| 2026-05-04 22:40 | 26.86604 | -80.20853 | 12490 ft | 351 kts | 287° |
| 2026-05-04 22:40 | 26.87405 | -80.23450 | 13307 ft | 354 kts | 287° |
| 2026-05-04 22:40 | 26.88210 | -80.26063 | 14052 ft | 357 kts | 287° |
| 2026-05-04 22:41 | 26.89020 | -80.28697 | 14624 ft | 359 kts | 287° |
| 2026-05-04 22:41 | 26.89843 | -80.31354 | 15170 ft | 361 kts | 288° |
| 2026-05-04 22:41 | 26.90975 | -80.33888 | 15711 ft | 368 kts | 300° |
| 2026-05-04 22:41 | 26.92634 | -80.36099 | 16234 ft | 377 kts | 313° |
| 2026-05-04 22:42 | 26.94779 | -80.37846 | 16773 ft | 387 kts | 326° |
| 2026-05-04 22:42 | 26.97249 | -80.39036 | 17296 ft | 395 kts | 333° |
| 2026-05-04 22:42 | 26.99829 | -80.40140 | 17834 ft | 398 kts | 333° |
| 2026-05-04 22:42 | 27.02418 | -80.41252 | 18366 ft | 402 kts | 333° |
| 2026-05-04 22:43 | 27.05036 | -80.42379 | 18841 ft | 405 kts | 333° |
| 2026-05-04 22:43 | 27.07685 | -80.43520 | 19309 ft | 408 kts | 332° |
| 2026-05-04 22:43 | 27.10344 | -80.44666 | 19768 ft | 411 kts | 332° |
| 2026-05-04 22:43 | 27.13022 | -80.45820 | 20242 ft | 414 kts | 332° |
| 2026-05-04 22:44 | 27.15719 | -80.46984 | 20691 ft | 416 kts | 332° |
| 2026-05-04 22:44 | 27.18362 | -80.48152 | 21122 ft | 418 kts | 331° |
| 2026-05-04 22:44 | 27.21075 | -80.49393 | 21544 ft | 421 kts | 330° |
| 2026-05-04 22:44 | 27.23786 | -80.50658 | 21949 ft | 423 kts | 330° |
| 2026-05-04 22:45 | 27.26518 | -80.51940 | 22352 ft | 426 kts | 330° |
| 2026-05-04 22:45 | 27.32024 | -80.54509 | 23143 ft | 431 kts | 329° |
| 2026-05-04 22:45 | 27.34784 | -80.55843 | 23508 ft | 432 kts | 328° |
| 2026-05-04 22:46 | 27.37538 | -80.57230 | 23835 ft | 434 kts | 328° |
| 2026-05-04 22:46 | 27.40286 | -80.58648 | 24159 ft | 436 kts | 327° |
| 2026-05-04 22:46 | 27.43043 | -80.60083 | 24479 ft | 437 kts | 327° |
| 2026-05-04 22:46 | 27.45814 | -80.61521 | 24799 ft | 439 kts | 327° |
| 2026-05-04 22:47 | 27.48560 | -80.62932 | 25107 ft | 441 kts | 328° |
| 2026-05-04 22:47 | 27.51295 | -80.64473 | 25411 ft | 437 kts | 321° |
| 2026-05-04 22:47 | 27.53753 | -80.66433 | 25721 ft | 429 kts | 312° |
| 2026-05-04 22:47 | 27.56003 | -80.68646 | 26038 ft | 430 kts | 311° |
| 2026-05-04 22:48 | 27.58252 | -80.70870 | 26343 ft | 432 kts | 311° |
| 2026-05-04 22:48 | 27.60514 | -80.73109 | 26640 ft | 434 kts | 311° |
| 2026-05-04 22:48 | 27.62782 | -80.75354 | 27027 ft | 433 kts | 311° |
| 2026-05-04 22:48 | 27.65045 | -80.77591 | 27466 ft | 432 kts | 311° |
| 2026-05-04 22:49 | 27.67301 | -80.79825 | 27899 ft | 431 kts | 311° |
| 2026-05-04 22:49 | 27.69516 | -80.82022 | 28327 ft | 430 kts | 311° |
| 2026-05-04 22:49 | 27.71761 | -80.84250 | 28760 ft | 429 kts | 311° |
| 2026-05-04 22:49 | 27.73999 | -80.86473 | 29195 ft | 428 kts | 310° |
| 2026-05-04 22:50 | 27.76233 | -80.88696 | 29632 ft | 428 kts | 310° |
| 2026-05-04 22:50 | 27.78462 | -80.90915 | 30066 ft | 427 kts | 310° |
| 2026-05-04 22:50 | 27.80779 | -80.93043 | 30462 ft | 434 kts | 317° |
| 2026-05-04 22:50 | 27.83444 | -80.94720 | 30819 ft | 446 kts | 328° |
| 2026-05-04 22:51 | 27.86427 | -80.95823 | 31188 ft | 459 kts | 339° |
| 2026-05-04 22:51 | 27.89596 | -80.96454 | 31530 ft | 463 kts | 341° |
| 2026-05-04 22:51 | 27.92773 | -80.97058 | 31878 ft | 463 kts | 340° |
| 2026-05-04 22:51 | 27.95949 | -80.97667 | 32240 ft | 463 kts | 340° |
| 2026-05-04 22:52 | 27.99078 | -80.98274 | 32597 ft | 462 kts | 340° |
| 2026-05-04 22:52 | 28.02235 | -80.98890 | 32960 ft | 462 kts | 339° |
| 2026-05-04 22:52 | 28.05416 | -80.99512 | 33330 ft | 462 kts | 339° |
| 2026-05-04 22:52 | 28.08582 | -81.00133 | 33692 ft | 462 kts | 338° |
| 2026-05-04 22:53 | 28.11747 | -81.00756 | 34053 ft | 461 kts | 338° |
| 2026-05-04 22:53 | 28.14908 | -81.01378 | 34360 ft | 461 kts | 338° |
| 2026-05-04 22:53 | 28.18066 | -81.01996 | 34662 ft | 460 kts | 338° |
| 2026-05-04 22:53 | 28.21220 | -81.02611 | 34949 ft | 460 kts | 338° |
| 2026-05-04 22:54 | 28.27522 | -81.03837 | 35071 ft | 468 kts | 338° |
| 2026-05-04 22:54 | 28.33998 | -81.05107 | 35073 ft | 474 kts | 338° |
| 2026-05-04 22:55 | 28.37180 | -81.05923 | 35073 ft | 462 kts | 329° |
| 2026-05-04 22:55 | 28.40162 | -81.07155 | 35073 ft | 455 kts | 326° |
| 2026-05-04 22:55 | 28.46078 | -81.09721 | 35075 ft | 455 kts | 326° |
| 2026-05-04 22:56 | 28.52006 | -81.12276 | 35078 ft | 456 kts | 326° |
| 2026-05-04 22:56 | 28.57897 | -81.14825 | 35090 ft | 456 kts | 326° |
| 2026-05-04 22:57 | 28.63827 | -81.17394 | 35099 ft | 456 kts | 326° |
| 2026-05-04 22:57 | 28.69742 | -81.19953 | 35100 ft | 456 kts | 326° |
| 2026-05-04 22:58 | 28.75678 | -81.22528 | 35104 ft | 456 kts | 326° |
| 2026-05-04 22:58 | 28.81610 | -81.25106 | 35103 ft | 456 kts | 326° |
| 2026-05-04 22:59 | 28.87539 | -81.27689 | 35104 ft | 456 kts | 325° |
| 2026-05-04 22:59 | 28.93729 | -81.29632 | 35103 ft | 484 kts | 341° |
| 2026-05-04 23:00 | 29.00505 | -81.30188 | 35109 ft | 489 kts | 343° |
| 2026-05-04 23:00 | 29.07302 | -81.30704 | 35112 ft | 489 kts | 343° |
| 2026-05-04 23:01 | 29.14093 | -81.31226 | 35109 ft | 489 kts | 343° |
| 2026-05-04 23:01 | 29.20837 | -81.31763 | 35114 ft | 489 kts | 343° |
| 2026-05-04 23:02 | 29.27625 | -81.32314 | 35221 ft | 482 kts | 340° |
| 2026-05-04 23:02 | 29.30907 | -81.32545 | 35946 ft | 467 kts | 343° |
| 2026-05-04 23:02 | 29.34111 | -81.32726 | 36669 ft | 455 kts | 343° |
| 2026-05-04 23:03 | 29.37236 | -81.32857 | 37380 ft | 443 kts | 343° |
| 2026-05-04 23:03 | 29.40275 | -81.32936 | 38087 ft | 430 kts | 343° |
| 2026-05-04 23:03 | 29.43186 | -81.32962 | 38725 ft | 417 kts | 343° |
| 2026-05-04 23:03 | 29.46043 | -81.32934 | 39201 ft | 404 kts | 344° |
| 2026-05-04 23:04 | 29.48837 | -81.32865 | 39345 ft | 402 kts | 344° |
| 2026-05-04 23:04 | 29.51663 | -81.32787 | 39049 ft | 414 kts | 345° |
| 2026-05-04 23:04 | 29.54599 | -81.32718 | 38645 ft | 428 kts | 345° |
| 2026-05-04 23:04 | 29.57588 | -81.32643 | 38628 ft | 429 kts | 346° |
| 2026-05-04 23:05 | 29.60536 | -81.32533 | 39024 ft | 418 kts | 346° |
| 2026-05-04 23:05 | 29.63405 | -81.32379 | 39368 ft | 409 kts | 347° |
| 2026-05-04 23:05 | 29.69142 | -81.32006 | 39059 ft | 423 kts | 347° |
| 2026-05-04 23:06 | 29.72116 | -81.31816 | 38790 ft | 433 kts | 348° |
| 2026-05-04 23:06 | 29.75122 | -81.31611 | 38849 ft | 431 kts | 348° |
| 2026-05-04 23:06 | 29.78043 | -81.31376 | 39195 ft | 421 kts | 349° |
| 2026-05-04 23:06 | 29.80932 | -81.31099 | 39496 ft | 413 kts | 349° |
| 2026-05-04 23:07 | 29.86725 | -81.30485 | 39142 ft | 423 kts | 350° |
| 2026-05-04 23:07 | 29.89650 | -81.30156 | 38699 ft | 424 kts | 351° |
| 2026-05-04 23:07 | 29.92598 | -81.29805 | 38135 ft | 426 kts | 351° |
| 2026-05-04 23:08 | 29.95532 | -81.29433 | 37780 ft | 422 kts | 352° |
| 2026-05-04 23:08 | 29.98420 | -81.29029 | 37602 ft | 413 kts | 353° |
| 2026-05-04 23:08 | 30.01241 | -81.28608 | 37116 ft | 410 kts | 351° |
| 2026-05-04 23:08 | 30.04132 | -81.28620 | 35521 ft | 416 kts | 333° |
| 2026-05-04 23:09 | 30.06812 | -81.29598 | 35478 ft | 399 kts | 324° |
| 2026-05-04 23:09 | 30.09484 | -81.30779 | 34830 ft | 423 kts | 326° |
| 2026-05-04 23:09 | 30.14984 | -81.33268 | 35084 ft | 430 kts | 326° |
| 2026-05-04 23:10 | 30.20629 | -81.35862 | 35097 ft | 443 kts | 326° |
| 2026-05-04 23:10 | 30.26582 | -81.38135 | 35092 ft | 470 kts | 342° |
| 2026-05-04 23:11 | 30.33217 | -81.38607 | 35090 ft | 479 kts | 346° |
| 2026-05-04 23:11 | 30.39864 | -81.38992 | 35091 ft | 478 kts | 346° |
| 2026-05-04 23:12 | 30.46493 | -81.39373 | 35112 ft | 478 kts | 346° |
| 2026-05-04 23:12 | 30.53092 | -81.39728 | 35128 ft | 478 kts | 346° |
| 2026-05-04 23:13 | 30.59734 | -81.40069 | 35130 ft | 478 kts | 346° |
| 2026-05-04 23:13 | 30.66374 | -81.40421 | 35138 ft | 477 kts | 346° |
| 2026-05-04 23:14 | 30.73001 | -81.40772 | 35137 ft | 477 kts | 346° |
| 2026-05-04 23:14 | 30.79588 | -81.41128 | 35134 ft | 476 kts | 346° |
| 2026-05-04 23:15 | 30.86211 | -81.41480 | 35127 ft | 476 kts | 347° |
| 2026-05-04 23:15 | 30.92824 | -81.41823 | 35121 ft | 475 kts | 347° |
| 2026-05-04 23:16 | 30.99435 | -81.42173 | 35120 ft | 475 kts | 347° |
| 2026-05-04 23:16 | 31.06030 | -81.42527 | 35125 ft | 475 kts | 347° |
| 2026-05-04 23:17 | 31.12581 | -81.42882 | 35128 ft | 474 kts | 347° |
| 2026-05-04 23:17 | 31.19173 | -81.43227 | 35131 ft | 474 kts | 347° |
| 2026-05-04 23:18 | 31.25859 | -81.42701 | 35142 ft | 495 kts | 5° |
| 2026-05-04 23:18 | 31.29170 | -81.41452 | 35150 ft | 507 kts | 16° |
| 2026-05-04 23:18 | 31.32383 | -81.39723 | 35140 ft | 509 kts | 18° |
| 2026-05-04 23:19 | 31.38798 | -81.36221 | 35133 ft | 509 kts | 18° |
| 2026-05-04 23:19 | 31.45166 | -81.32753 | 35130 ft | 508 kts | 18° |
| 2026-05-04 23:20 | 31.51584 | -81.29271 | 35122 ft | 508 kts | 18° |
| 2026-05-04 23:20 | 31.57987 | -81.25785 | 35118 ft | 508 kts | 18° |
| 2026-05-04 23:21 | 31.64401 | -81.22289 | 35117 ft | 508 kts | 18° |
| 2026-05-04 23:21 | 31.70807 | -81.18789 | 35111 ft | 507 kts | 18° |
| 2026-05-04 23:22 | 31.77205 | -81.15295 | 35107 ft | 507 kts | 18° |
| 2026-05-04 23:22 | 31.83551 | -81.11826 | 35101 ft | 506 kts | 18° |
| 2026-05-04 23:23 | 31.89923 | -81.08322 | 35098 ft | 506 kts | 18° |
| 2026-05-04 23:23 | 31.96288 | -81.04816 | 35096 ft | 504 kts | 18° |
| 2026-05-04 23:24 | 32.02640 | -81.01313 | 35097 ft | 504 kts | 18° |
| 2026-05-04 23:24 | 32.08939 | -80.97795 | 35103 ft | 503 kts | 19° |
| 2026-05-04 23:25 | 32.15258 | -80.94243 | 35138 ft | 503 kts | 19° |
| 2026-05-04 23:25 | 32.21570 | -80.90693 | 35143 ft | 502 kts | 19° |
| 2026-05-04 23:26 | 32.27875 | -80.87153 | 35146 ft | 501 kts | 19° |
| 2026-05-04 23:26 | 32.34176 | -80.83620 | 35144 ft | 501 kts | 19° |
| 2026-05-04 23:27 | 32.40430 | -80.80098 | 35130 ft | 500 kts | 19° |
| 2026-05-04 23:27 | 32.46706 | -80.76550 | 35133 ft | 500 kts | 19° |
| 2026-05-04 23:28 | 32.52976 | -80.73006 | 35132 ft | 499 kts | 19° |
| 2026-05-04 23:28 | 32.59238 | -80.69455 | 35128 ft | 498 kts | 19° |
| 2026-05-04 23:29 | 32.65496 | -80.65909 | 35126 ft | 498 kts | 19° |
| 2026-05-04 23:29 | 32.71554 | -80.61962 | 35122 ft | 507 kts | 31° |
| 2026-05-04 23:30 | 32.76861 | -80.56356 | 35126 ft | 512 kts | 39° |
| 2026-05-04 23:30 | 32.82059 | -80.50560 | 35117 ft | 512 kts | 39° |
| 2026-05-04 23:31 | 32.87261 | -80.44777 | 35120 ft | 512 kts | 39° |
| 2026-05-04 23:31 | 32.92419 | -80.39030 | 35104 ft | 511 kts | 39° |
| 2026-05-04 23:32 | 32.97608 | -80.33239 | 35112 ft | 511 kts | 39° |
| 2026-05-04 23:32 | 33.02790 | -80.27443 | 35112 ft | 511 kts | 39° |
| 2026-05-04 23:33 | 33.07966 | -80.21643 | 35107 ft | 511 kts | 39° |
| 2026-05-04 23:33 | 33.13139 | -80.15831 | 35124 ft | 511 kts | 39° |
| 2026-05-04 23:34 | 33.18269 | -80.10052 | 35129 ft | 510 kts | 39° |
| 2026-05-04 23:34 | 33.23437 | -80.04239 | 35124 ft | 510 kts | 39° |
| 2026-05-04 23:35 | 33.28600 | -79.98420 | 35139 ft | 510 kts | 39° |
| 2026-05-04 23:35 | 33.31150 | -79.95534 | 35080 ft | 497 kts | 39° |
| 2026-05-04 23:35 | 33.33632 | -79.92718 | 35097 ft | 489 kts | 39° |
| 2026-05-04 23:36 | 33.37725 | -79.88076 | 35092 ft | 487 kts | 39° |
| 2026-05-04 23:36 | 33.43435 | -79.81617 | 35088 ft | 486 kts | 39° |
| 2026-05-04 23:37 | 33.48353 | -79.76043 | 35079 ft | 486 kts | 39° |
| 2026-05-04 23:37 | 33.53258 | -79.70468 | 35084 ft | 486 kts | 39° |
| 2026-05-04 23:38 | 33.57338 | -79.65821 | 35100 ft | 487 kts | 39° |
| 2026-05-04 23:38 | 33.63038 | -79.59312 | 35100 ft | 487 kts | 39° |
| 2026-05-04 23:39 | 33.67105 | -79.54660 | 35109 ft | 487 kts | 39° |
| 2026-05-04 23:39 | 33.72019 | -79.49041 | 35106 ft | 487 kts | 39° |
| 2026-05-04 23:40 | 33.76916 | -79.43427 | 35108 ft | 487 kts | 39° |
| 2026-05-04 23:40 | 33.81806 | -79.37810 | 35111 ft | 487 kts | 39° |
| 2026-05-04 23:41 | 33.86699 | -79.32180 | 35112 ft | 486 kts | 39° |
| 2026-05-04 23:41 | 33.91556 | -79.26578 | 35109 ft | 486 kts | 39° |
| 2026-05-04 23:42 | 33.96435 | -79.20942 | 35109 ft | 486 kts | 39° |
| 2026-05-04 23:42 | 34.01311 | -79.15300 | 35112 ft | 486 kts | 39° |
| 2026-05-04 23:43 | 34.06183 | -79.09659 | 35097 ft | 486 kts | 39° |
| 2026-05-04 23:43 | 34.11021 | -79.04047 | 35100 ft | 486 kts | 39° |
| 2026-05-04 23:44 | 34.15890 | -78.98388 | 35110 ft | 486 kts | 39° |
| 2026-05-04 23:44 | 34.20751 | -78.92716 | 35119 ft | 486 kts | 39° |
| 2026-05-04 23:45 | 34.25606 | -78.87054 | 35123 ft | 486 kts | 39° |
| 2026-05-04 23:45 | 34.30464 | -78.81392 | 35127 ft | 485 kts | 39° |
| 2026-05-04 23:46 | 34.35285 | -78.75755 | 35129 ft | 485 kts | 39° |
| 2026-05-04 23:46 | 34.40141 | -78.70091 | 35113 ft | 483 kts | 36° |
| 2026-05-04 23:47 | 34.45402 | -78.65112 | 35093 ft | 479 kts | 32° |
| 2026-05-04 23:47 | 34.50675 | -78.60253 | 35096 ft | 479 kts | 32° |
| 2026-05-04 23:48 | 34.55984 | -78.55359 | 35095 ft | 479 kts | 32° |
| 2026-05-04 23:48 | 34.61287 | -78.50443 | 35094 ft | 480 kts | 32° |
| 2026-05-04 23:49 | 34.66587 | -78.45514 | 35096 ft | 480 kts | 32° |
| 2026-05-04 23:49 | 34.71858 | -78.40607 | 35093 ft | 480 kts | 32° |
| 2026-05-04 23:50 | 34.77166 | -78.35663 | 35089 ft | 481 kts | 32° |
| 2026-05-04 23:50 | 34.82473 | -78.30717 | 35094 ft | 480 kts | 32° |
| 2026-05-04 23:51 | 34.87777 | -78.25768 | 35092 ft | 480 kts | 32° |
| 2026-05-04 23:51 | 34.93075 | -78.20809 | 35090 ft | 481 kts | 32° |
| 2026-05-04 23:52 | 34.98344 | -78.15872 | 35090 ft | 481 kts | 33° |
| 2026-05-04 23:52 | 35.03642 | -78.10891 | 35092 ft | 481 kts | 33° |
| 2026-05-04 23:53 | 35.08944 | -78.05901 | 35093 ft | 481 kts | 33° |
| 2026-05-04 23:53 | 35.14236 | -78.00915 | 35088 ft | 481 kts | 33° |
| 2026-05-04 23:54 | 35.19507 | -77.95938 | 35065 ft | 482 kts | 33° |
| 2026-05-04 23:54 | 35.24810 | -77.90921 | 35059 ft | 482 kts | 33° |
| 2026-05-04 23:55 | 35.30116 | -77.85896 | 35058 ft | 483 kts | 33° |
| 2026-05-04 23:56 | 35.38046 | -77.78367 | 35063 ft | 483 kts | 33° |
| 2026-05-04 23:56 | 35.43362 | -77.73315 | 35087 ft | 484 kts | 33° |
| 2026-05-04 23:57 | 35.48676 | -77.68246 | 35085 ft | 484 kts | 33° |
| 2026-05-04 23:57 | 35.53981 | -77.63171 | 35080 ft | 484 kts | 33° |
| 2026-05-04 23:58 | 35.59303 | -77.58083 | 35055 ft | 485 kts | 33° |
| 2026-05-04 23:58 | 35.64588 | -77.53022 | 35050 ft | 485 kts | 33° |
| 2026-05-04 23:59 | 35.69910 | -77.47923 | 35049 ft | 485 kts | 33° |
| 2026-05-04 23:59 | 35.75238 | -77.42806 | 35050 ft | 486 kts | 33° |
| 2026-05-05 00:00 | 35.80561 | -77.37676 | 35053 ft | 486 kts | 34° |
| 2026-05-05 00:00 | 35.85884 | -77.32534 | 35048 ft | 486 kts | 34° |
| 2026-05-05 00:01 | 35.91176 | -77.27421 | 35064 ft | 486 kts | 33° |
| 2026-05-05 00:01 | 35.96771 | -77.22868 | 35068 ft | 481 kts | 26° |
| 2026-05-05 00:02 | 36.02485 | -77.18560 | 35058 ft | 481 kts | 26° |
| 2026-05-05 00:02 | 36.08212 | -77.14241 | 35041 ft | 482 kts | 26° |
| 2026-05-05 00:03 | 36.13891 | -77.09950 | 35043 ft | 482 kts | 26° |
| 2026-05-05 00:03 | 36.19612 | -77.05609 | 35048 ft | 482 kts | 26° |
| 2026-05-05 00:04 | 36.25323 | -77.01272 | 35045 ft | 482 kts | 26° |
| 2026-05-05 00:04 | 36.31036 | -76.96931 | 35041 ft | 482 kts | 26° |
| 2026-05-05 00:05 | 36.36757 | -76.92579 | 35038 ft | 482 kts | 26° |
| 2026-05-05 00:05 | 36.42432 | -76.88257 | 35042 ft | 482 kts | 26° |
| 2026-05-05 00:06 | 36.48130 | -76.83894 | 35036 ft | 482 kts | 26° |
| 2026-05-05 00:06 | 36.53833 | -76.79519 | 35038 ft | 482 kts | 26° |
| 2026-05-05 00:07 | 36.59498 | -76.75176 | 35055 ft | 481 kts | 26° |
| 2026-05-05 00:07 | 36.65194 | -76.70804 | 35055 ft | 481 kts | 26° |
| 2026-05-05 00:08 | 36.70894 | -76.66423 | 35058 ft | 481 kts | 26° |
| 2026-05-05 00:08 | 36.76579 | -76.62035 | 35052 ft | 481 kts | 26° |
| 2026-05-05 00:09 | 36.82271 | -76.57640 | 35044 ft | 481 kts | 26° |
| 2026-05-05 00:09 | 36.87912 | -76.53280 | 35043 ft | 481 kts | 26° |
| 2026-05-05 00:10 | 36.93598 | -76.48882 | 35044 ft | 480 kts | 26° |
| 2026-05-05 00:10 | 36.99269 | -76.44483 | 35018 ft | 480 kts | 27° |
| 2026-05-05 00:11 | 37.04934 | -76.40070 | 35013 ft | 479 kts | 27° |
| 2026-05-05 00:11 | 37.10552 | -76.35683 | 35014 ft | 479 kts | 27° |
| 2026-05-05 00:12 | 37.16204 | -76.31271 | 35014 ft | 478 kts | 27° |
| 2026-05-05 00:12 | 37.21845 | -76.26860 | 35017 ft | 477 kts | 27° |
| 2026-05-05 00:13 | 37.27475 | -76.22447 | 35020 ft | 476 kts | 27° |
| 2026-05-05 00:13 | 37.33091 | -76.18039 | 35019 ft | 475 kts | 27° |
| 2026-05-05 00:14 | 37.38661 | -76.13672 | 35017 ft | 474 kts | 27° |
| 2026-05-05 00:14 | 37.44254 | -76.09277 | 35020 ft | 473 kts | 27° |
| 2026-05-05 00:15 | 37.49821 | -76.04881 | 35016 ft | 472 kts | 28° |
| 2026-05-05 00:15 | 37.55381 | -76.00472 | 35015 ft | 471 kts | 28° |
| 2026-05-05 00:16 | 37.60879 | -75.96113 | 35014 ft | 470 kts | 28° |
| 2026-05-05 00:16 | 37.66380 | -75.91644 | 35012 ft | 470 kts | 30° |
| 2026-05-05 00:17 | 37.71831 | -75.87081 | 35009 ft | 470 kts | 30° |
| 2026-05-05 00:17 | 37.77276 | -75.82527 | 35008 ft | 469 kts | 30° |
| 2026-05-05 00:18 | 37.82685 | -75.78027 | 35009 ft | 468 kts | 30° |
| 2026-05-05 00:18 | 37.88123 | -75.73505 | 35011 ft | 467 kts | 30° |
| 2026-05-05 00:19 | 37.93553 | -75.68979 | 35023 ft | 467 kts | 30° |
| 2026-05-05 00:19 | 37.98974 | -75.64441 | 35020 ft | 467 kts | 30° |
| 2026-05-05 00:20 | 38.04351 | -75.59937 | 35020 ft | 466 kts | 30° |
| 2026-05-05 00:20 | 38.09768 | -75.55400 | 35018 ft | 466 kts | 30° |
| 2026-05-05 00:21 | 38.15180 | -75.50856 | 35007 ft | 466 kts | 30° |
| 2026-05-05 00:21 | 38.20589 | -75.46304 | 35003 ft | 466 kts | 30° |
| 2026-05-05 00:22 | 38.26111 | -75.42040 | 35001 ft | 461 kts | 20° |
| 2026-05-05 00:22 | 38.32143 | -75.39814 | 35003 ft | 453 kts | 5° |
| 2026-05-05 00:23 | 38.38365 | -75.38511 | 35004 ft | 453 kts | 6° |
| 2026-05-05 00:23 | 38.44578 | -75.37197 | 35001 ft | 453 kts | 6° |
| 2026-05-05 00:24 | 38.50798 | -75.35873 | 35002 ft | 453 kts | 6° |
| 2026-05-05 00:24 | 38.56967 | -75.34562 | 34995 ft | 452 kts | 6° |
| 2026-05-05 00:25 | 38.63181 | -75.33239 | 34995 ft | 452 kts | 6° |
| 2026-05-05 00:25 | 38.69382 | -75.31910 | 34994 ft | 452 kts | 6° |
| 2026-05-05 00:26 | 38.75570 | -75.30416 | 34991 ft | 454 kts | 13° |
| 2026-05-05 00:26 | 38.81293 | -75.27041 | 34994 ft | 460 kts | 28° |
| 2026-05-05 00:27 | 38.86772 | -75.22793 | 34993 ft | 460 kts | 28° |
| 2026-05-05 00:27 | 38.92252 | -75.18551 | 34998 ft | 460 kts | 28° |
| 2026-05-05 00:28 | 38.97726 | -75.14317 | 35002 ft | 459 kts | 28° |
| 2026-05-05 00:28 | 39.03159 | -75.10093 | 35002 ft | 459 kts | 28° |
| 2026-05-05 00:29 | 39.08612 | -75.05852 | 34999 ft | 458 kts | 28° |
| 2026-05-05 00:29 | 39.14065 | -75.01601 | 34998 ft | 458 kts | 28° |
| 2026-05-05 00:30 | 39.19514 | -74.97343 | 34973 ft | 458 kts | 28° |
| 2026-05-05 00:30 | 39.24947 | -74.93040 | 34972 ft | 459 kts | 32° |
| 2026-05-05 00:31 | 39.29786 | -74.87702 | 34973 ft | 461 kts | 39° |
| 2026-05-05 00:31 | 39.34518 | -74.82123 | 34977 ft | 461 kts | 39° |
| 2026-05-05 00:32 | 39.39254 | -74.76545 | 34989 ft | 460 kts | 39° |
| 2026-05-05 00:32 | 39.43974 | -74.70968 | 34989 ft | 459 kts | 39° |
| 2026-05-05 00:33 | 39.48676 | -74.65383 | 34986 ft | 459 kts | 39° |
| 2026-05-05 00:33 | 39.53342 | -74.59843 | 34987 ft | 458 kts | 39° |
| 2026-05-05 00:34 | 39.58041 | -74.54256 | 34986 ft | 458 kts | 39° |
| 2026-05-05 00:34 | 39.62720 | -74.48660 | 34984 ft | 458 kts | 40° |
| 2026-05-05 00:35 | 39.67361 | -74.43012 | 34982 ft | 457 kts | 40° |
| 2026-05-05 00:35 | 39.71951 | -74.37379 | 34982 ft | 457 kts | 40° |
| 2026-05-05 00:36 | 39.76576 | -74.31724 | 34982 ft | 456 kts | 40° |
| 2026-05-05 00:36 | 39.81192 | -74.26080 | 34978 ft | 455 kts | 40° |
| 2026-05-05 00:37 | 39.85999 | -74.20780 | 34976 ft | 452 kts | 34° |
| 2026-05-05 00:37 | 39.90934 | -74.15811 | 34975 ft | 451 kts | 34° |
| 2026-05-05 00:38 | 39.95890 | -74.10799 | 34981 ft | 451 kts | 34° |
| 2026-05-05 00:38 | 40.00840 | -74.05789 | 34979 ft | 450 kts | 34° |
| 2026-05-05 00:39 | 40.05780 | -74.00779 | 34963 ft | 449 kts | 33° |
| 2026-05-05 00:39 | 40.10791 | -73.95937 | 34769 ft | 446 kts | 32° |
| 2026-05-05 00:39 | 40.13277 | -73.93614 | 34159 ft | 444 kts | 31° |
| 2026-05-05 00:40 | 40.15787 | -73.91281 | 33489 ft | 442 kts | 32° |
| 2026-05-05 00:40 | 40.18293 | -73.88942 | 32718 ft | 443 kts | 32° |
| 2026-05-05 00:40 | 40.20798 | -73.86585 | 31880 ft | 445 kts | 32° |
| 2026-05-05 00:40 | 40.23309 | -73.84204 | 31007 ft | 447 kts | 32° |
| 2026-05-05 00:41 | 40.25832 | -73.81792 | 30117 ft | 451 kts | 33° |
| 2026-05-05 00:41 | 40.28371 | -73.79353 | 29045 ft | 454 kts | 33° |
| 2026-05-05 00:41 | 40.30931 | -73.76896 | 27952 ft | 458 kts | 33° |
| 2026-05-05 00:41 | 40.33510 | -73.74421 | 26857 ft | 461 kts | 33° |
| 2026-05-05 00:42 | 40.36089 | -73.71954 | 26093 ft | 457 kts | 33° |
| 2026-05-05 00:42 | 40.38646 | -73.69505 | 25353 ft | 453 kts | 33° |
| 2026-05-05 00:42 | 40.41142 | -73.67112 | 24643 ft | 449 kts | 33° |
| 2026-05-05 00:42 | 40.43653 | -73.64705 | 23944 ft | 445 kts | 33° |
| 2026-05-05 00:43 | 40.46137 | -73.62322 | 23227 ft | 442 kts | 33° |
| 2026-05-05 00:43 | 40.48620 | -73.59938 | 22441 ft | 439 kts | 33° |
| 2026-05-05 00:43 | 40.51072 | -73.57581 | 21684 ft | 435 kts | 33° |
| 2026-05-05 00:43 | 40.53508 | -73.55238 | 20948 ft | 432 kts | 32° |
| 2026-05-05 00:44 | 40.55920 | -73.52914 | 20253 ft | 429 kts | 33° |
| 2026-05-05 00:44 | 40.58317 | -73.50595 | 19584 ft | 426 kts | 33° |
| 2026-05-05 00:44 | 40.60663 | -73.48325 | 19099 ft | 424 kts | 33° |
| 2026-05-05 00:44 | 40.63045 | -73.46021 | 18919 ft | 426 kts | 32° |
| 2026-05-05 00:45 | 40.65430 | -73.43716 | 18928 ft | 426 kts | 33° |
| 2026-05-05 00:45 | 40.67822 | -73.41401 | 18934 ft | 427 kts | 33° |
| 2026-05-05 00:45 | 40.70211 | -73.39082 | 18935 ft | 427 kts | 33° |
| 2026-05-05 00:45 | 40.72597 | -73.36764 | 18866 ft | 425 kts | 33° |
| 2026-05-05 00:46 | 40.74983 | -73.34446 | 18939 ft | 427 kts | 33° |
| 2026-05-05 00:46 | 40.77377 | -73.32115 | 18934 ft | 427 kts | 33° |
| 2026-05-05 00:46 | 40.79757 | -73.29760 | 18940 ft | 428 kts | 34° |
| 2026-05-05 00:46 | 40.82040 | -73.27311 | 18942 ft | 429 kts | 37° |
| 2026-05-05 00:47 | 40.84295 | -73.24719 | 18945 ft | 430 kts | 38° |
| 2026-05-05 00:47 | 40.86515 | -73.22065 | 18944 ft | 431 kts | 39° |
| 2026-05-05 00:47 | 40.88725 | -73.19394 | 18946 ft | 431 kts | 39° |
| 2026-05-05 00:47 | 40.90943 | -73.16731 | 18946 ft | 431 kts | 39° |
| 2026-05-05 00:48 | 40.93172 | -73.14092 | 18945 ft | 431 kts | 38° |
| 2026-05-05 00:48 | 40.95416 | -73.11466 | 18940 ft | 431 kts | 38° |
| 2026-05-05 00:48 | 40.97663 | -73.08850 | 18941 ft | 430 kts | 38° |
| 2026-05-05 00:48 | 40.99913 | -73.06235 | 18920 ft | 430 kts | 38° |
| 2026-05-05 00:49 | 41.02161 | -73.03618 | 18886 ft | 429 kts | 38° |
| 2026-05-05 00:49 | 41.04367 | -73.01046 | 18347 ft | 427 kts | 38° |
| 2026-05-05 00:49 | 41.06586 | -72.98448 | 17584 ft | 424 kts | 38° |
| 2026-05-05 00:49 | 41.08785 | -72.95863 | 16825 ft | 420 kts | 38° |
| 2026-05-05 00:50 | 41.10956 | -72.93307 | 16084 ft | 416 kts | 38° |
| 2026-05-05 00:50 | 41.13109 | -72.90783 | 15381 ft | 411 kts | 38° |
| 2026-05-05 00:50 | 41.15244 | -72.88280 | 14655 ft | 407 kts | 38° |
| 2026-05-05 00:50 | 41.17349 | -72.85807 | 13969 ft | 403 kts | 38° |
| 2026-05-05 00:51 | 41.19438 | -72.83345 | 13223 ft | 399 kts | 38° |
| 2026-05-05 00:51 | 41.21497 | -72.80915 | 12459 ft | 393 kts | 38° |
| 2026-05-05 00:51 | 41.23527 | -72.78518 | 11725 ft | 388 kts | 39° |
| 2026-05-05 00:51 | 41.25633 | -72.76366 | 11192 ft | 379 kts | 28° |
| 2026-05-05 00:52 | 41.27983 | -72.74821 | 11012 ft | 374 kts | 17° |
| 2026-05-05 00:52 | 41.30474 | -72.73897 | 11009 ft | 371 kts | 7° |
| 2026-05-05 00:52 | 41.32993 | -72.73605 | 11010 ft | 366 kts | 356° |
| 2026-05-05 00:52 | 41.35515 | -72.73958 | 11012 ft | 363 kts | 345° |
| 2026-05-05 00:53 | 41.37913 | -72.74928 | 11005 ft | 359 kts | 334° |
| 2026-05-05 00:53 | 41.40108 | -72.76443 | 10933 ft | 354 kts | 326° |
| 2026-05-05 00:53 | 41.42324 | -72.77859 | 10350 ft | 354 kts | 342° |
| 2026-05-05 00:53 | 41.44729 | -72.78081 | 10208 ft | 345 kts | 3° |
| 2026-05-05 00:54 | 41.47052 | -72.77587 | 10088 ft | 331 kts | 6° |
| 2026-05-05 00:54 | 41.49270 | -72.77047 | 9727 ft | 326 kts | 7° |
| 2026-05-05 00:54 | 41.51525 | -72.76493 | 9217 ft | 325 kts | 7° |
| 2026-05-05 00:54 | 41.53715 | -72.75953 | 8728 ft | 324 kts | 7° |
| 2026-05-05 00:55 | 41.55927 | -72.75406 | 8230 ft | 323 kts | 7° |
| 2026-05-05 00:55 | 41.58123 | -72.74860 | 7932 ft | 316 kts | 7° |
| 2026-05-05 00:55 | 41.60247 | -72.74319 | 7498 ft | 304 kts | 7° |
| 2026-05-05 00:55 | 41.62284 | -72.73792 | 7074 ft | 293 kts | 7° |
| 2026-05-05 00:56 | 41.64248 | -72.73273 | 6648 ft | 283 kts | 6° |
| 2026-05-05 00:56 | 41.66165 | -72.72756 | 6230 ft | 280 kts | 7° |
| 2026-05-05 00:56 | 41.68072 | -72.72244 | 5790 ft | 279 kts | 7° |
| 2026-05-05 00:56 | 41.69987 | -72.71735 | 5362 ft | 283 kts | 7° |
| 2026-05-05 00:57 | 41.71903 | -72.71231 | 4954 ft | 286 kts | 7° |
| 2026-05-05 00:57 | 41.73836 | -72.70726 | 4844 ft | 281 kts | 7° |
| 2026-05-05 00:57 | 41.75756 | -72.70220 | 4851 ft | 282 kts | 7° |
| 2026-05-05 00:57 | 41.77684 | -72.69714 | 4854 ft | 282 kts | 7° |
| 2026-05-05 00:58 | 41.79616 | -72.69205 | 4850 ft | 282 kts | 6° |
| 2026-05-05 00:58 | 41.81543 | -72.68694 | 4852 ft | 282 kts | 7° |
| 2026-05-05 00:58 | 41.83459 | -72.68181 | 4851 ft | 282 kts | 7° |
| 2026-05-05 00:58 | 41.85395 | -72.67668 | 4837 ft | 283 kts | 7° |
| 2026-05-05 00:59 | 41.87317 | -72.67160 | 4833 ft | 281 kts | 7° |
| 2026-05-05 00:59 | 41.89243 | -72.66650 | 4830 ft | 282 kts | 6° |
| 2026-05-05 00:59 | 41.91165 | -72.66140 | 4835 ft | 282 kts | 7° |
| 2026-05-05 00:59 | 41.93062 | -72.65606 | 4833 ft | 284 kts | 12° |
| 2026-05-05 01:00 | 41.94792 | -72.64333 | 4862 ft | 290 kts | 40° |
| 2026-05-05 01:00 | 41.95968 | -72.62117 | 4744 ft | 293 kts | 68° |
| 2026-05-05 01:00 | 41.96583 | -72.59524 | 4416 ft | 291 kts | 76° |
| 2026-05-05 01:00 | 41.97105 | -72.56897 | 4074 ft | 291 kts | 76° |
| 2026-05-05 01:01 | 41.97618 | -72.54282 | 3759 ft | 289 kts | 77° |
| 2026-05-05 01:01 | 41.98143 | -72.51687 | 3552 ft | 284 kts | 76° |
| 2026-05-05 01:01 | 41.98653 | -72.49169 | 3424 ft | 274 kts | 76° |
| 2026-05-05 01:01 | 41.99153 | -72.46738 | 3231 ft | 267 kts | 77° |
| 2026-05-05 01:02 | 41.99661 | -72.44346 | 2943 ft | 265 kts | 76° |
| 2026-05-05 01:02 | 42.00160 | -72.42007 | 2842 ft | 266 kts | 77° |
| 2026-05-05 01:02 | 42.00678 | -72.39610 | 2809 ft | 267 kts | 76° |
| 2026-05-05 01:02 | 42.01213 | -72.37231 | 2812 ft | 267 kts | 70° |
| 2026-05-05 01:03 | 42.02253 | -72.35190 | 2813 ft | 270 kts | 38° |
| 2026-05-05 01:03 | 42.03876 | -72.34053 | 2814 ft | 257 kts | 7° |
| 2026-05-05 01:03 | 42.05591 | -72.34126 | 2812 ft | 240 kts | 334° |
| 2026-05-05 01:03 | 42.07028 | -72.35150 | 2811 ft | 232 kts | 319° |
| 2026-05-05 01:04 | 42.08350 | -72.36399 | 2806 ft | 233 kts | 317° |
| 2026-05-05 01:04 | 42.10928 | -72.38963 | 2797 ft | 232 kts | 316° |
| 2026-05-05 01:04 | 42.12224 | -72.40259 | 2792 ft | 232 kts | 316° |
| 2026-05-05 01:05 | 42.13504 | -72.41519 | 2822 ft | 223 kts | 316° |
| 2026-05-05 01:05 | 42.14746 | -72.42737 | 2825 ft | 220 kts | 317° |
| 2026-05-05 01:05 | 42.15776 | -72.44174 | 2825 ft | 208 kts | 290° |
| 2026-05-05 01:05 | 42.15999 | -72.45998 | 2824 ft | 196 kts | 255° |
| 2026-05-05 01:06 | 42.15350 | -72.47562 | 2830 ft | 194 kts | 220° |
| 2026-05-05 01:06 | 42.14110 | -72.48215 | 2829 ft | 200 kts | 195° |
| 2026-05-05 01:06 | 42.12761 | -72.48641 | 2804 ft | 197 kts | 198° |
| 2026-05-05 01:06 | 42.11437 | -72.49097 | 2539 ft | 195 kts | 198° |
| 2026-05-05 01:07 | 42.10138 | -72.49545 | 2359 ft | 191 kts | 198° |
| 2026-05-05 01:07 | 42.08883 | -72.50002 | 2321 ft | 183 kts | 203° |
| 2026-05-05 01:07 | 42.07812 | -72.50775 | 2281 ft | 168 kts | 217° |
| 2026-05-05 01:07 | 42.06926 | -72.51733 | 2132 ft | 159 kts | 221° |
| 2026-05-05 01:08 | 42.06112 | -72.52731 | 1985 ft | 159 kts | 223° |
| 2026-05-05 01:08 | 42.05317 | -72.53749 | 1924 ft | 158 kts | 223° |
| 2026-05-05 01:08 | 42.04523 | -72.54782 | 1926 ft | 161 kts | 224° |
| 2026-05-05 01:08 | 42.03713 | -72.55845 | 1959 ft | 161 kts | 224° |
| 2026-05-05 01:09 | 42.02915 | -72.56894 | 1996 ft | 160 kts | 224° |
| 2026-05-05 01:09 | 42.02114 | -72.57948 | 1965 ft | 155 kts | 223° |
| 2026-05-05 01:09 | 42.01370 | -72.58927 | 1855 ft | 144 kts | 223° |
| 2026-05-05 01:09 | 42.00683 | -72.59832 | 1708 ft | 136 kts | 221° |
| 2026-05-05 01:10 | 42.00011 | -72.60715 | 1536 ft | 135 kts | 222° |
| 2026-05-05 01:10 | 41.99362 | -72.61570 | 1383 ft | 126 kts | 220° |
| 2026-05-05 01:10 | 41.98723 | -72.62408 | 1203 ft | 125 kts | 224° |
| 2026-05-05 01:10 | 41.98116 | -72.63207 | 1045 ft | 124 kts | 221° |
| 2026-05-05 01:11 | 41.97486 | -72.64035 | 884 ft | 126 kts | 220° |
| 2026-05-05 01:11 | 41.96851 | -72.64867 | 722 ft | 130 kts | 219° |
| 2026-05-05 01:11 | 41.96198 | -72.65724 | 527 ft | 132 kts | 221° |
| 2026-05-05 01:11 | 41.95552 | -72.66572 | 358 ft | 132 kts | 221° |
| 2026-05-05 01:12 | 41.94908 | -72.67440 | 204 ft | 125 kts | 217° |
| 2026-05-05 01:12 | 41.94364 | -72.68135 | 180 ft | 86 kts | 224° |
| 2026-05-05 01:12 | 41.94062 | -72.68528 | 178 ft | 27 kts | 223° |
| 2026-05-05 01:12 | 41.94037 | -72.68558 | 177 ft | 4 kts | 226° |
| 2026-05-05 01:13 | 41.93942 | -72.68689 | 178 ft | 27 kts | 224° |
| 2026-05-05 01:13 | 41.93864 | -72.68790 | 178 ft | 14 kts | 223° |
| 2026-05-05 01:13 | 41.93801 | -72.68836 | 179 ft | 4 kts | 176° |
| 2026-05-05 01:13 | 41.93735 | -72.68828 | 181 ft | 14 kts | 162° |
| 2026-05-05 01:14 | 41.93701 | -72.68726 | 180 ft | 16 kts | 59° |
| 2026-05-05 01:14 | 41.93786 | -72.68617 | 179 ft | 18 kts | 41° |
| 2026-05-05 01:14 | 41.93889 | -72.68498 | 178 ft | 21 kts | 40° |
| 2026-05-05 01:14 | 41.93997 | -72.68358 | 180 ft | 22 kts | 43° |
| 2026-05-05 01:15 | 41.94110 | -72.68224 | 181 ft | 18 kts | 40° |
| 2026-05-05 01:15 | 41.94203 | -72.68106 | 183 ft | 19 kts | 41° |
| 2026-05-05 01:15 | 41.94268 | -72.67989 | 181 ft | 12 kts | 125° |
| 2026-05-05 01:15 | 41.94182 | -72.67981 | 180 ft | 15 kts | 180° |
| 2026-05-05 01:16 | 41.94008 | -72.67977 | 178 ft | 29 kts | 179° |
| 2026-05-05 01:16 | 41.93801 | -72.67972 | 174 ft | 31 kts | 179° |
| 2026-05-05 01:16 | 41.93625 | -72.67967 | 174 ft | 17 kts | 179° |
| 2026-05-05 01:16 | 41.93543 | -72.68045 | 174 ft | 16 kts | 261° |
| 2026-05-05 01:17 | 41.93493 | -72.68137 | 175 ft | 10 kts | 221° |
| 2026-05-05 01:17 | 41.93440 | -72.68193 | 175 ft | 11 kts | 214° |
| 2026-05-05 01:17 | 41.93374 | -72.68262 | 176 ft | 13 kts | 225° |
| 2026-05-05 01:17 | 41.93309 | -72.68261 | 178 ft | 12 kts | 150° |
| 2026-05-05 01:18 | 41.93245 | -72.68173 | 178 ft | 15 kts | 134° |
| 2026-05-05 01:18 | 41.93171 | -72.68072 | 181 ft | 15 kts | 135° |
| 2026-05-05 01:18 | 41.93097 | -72.67973 | 181 ft | 16 kts | 135° |
| 2026-05-05 01:18 | 41.93020 | -72.67867 | 180 ft | 16 kts | 130° |
| 2026-05-05 01:19 | 41.92960 | -72.67887 | 182 ft | 10 kts | 241° |
| 2026-05-05 01:19 | 41.92932 | -72.67972 | 181 ft | 11 kts | 227° |
| 2026-05-05 01:19 | 41.92879 | -72.68039 | 181 ft | 9 kts | 243° |
| 2026-05-05 01:19 | 41.92875 | -72.68125 | 180 ft | 9 kts | 265° |
| 2026-05-05 01:20 | 41.92877 | -72.68180 | 180 ft | 0 kts | 325° |
| 2026-05-05 01:20 | 41.92895 | -72.68185 | 180 ft | 4 kts | 358° |
| 2026-05-05 01:20 | 41.92918 | -72.68181 | 181 ft | 2 kts | 1° |
| 2026-05-05 01:20 | 41.92921 | -72.68181 | 181 ft | 0 kts | 1° |